Time,TemperatureF,DewpointF,PressureIn,WindDirection,WindDirectionDegrees,WindSpeedMPH,WindSpeedGustMPH,Humidity,HourlyPrecipIn,Conditions,Clouds,dailyrainin,SoftwareType,DateUTC
2013-03-09 00:03:00,37.0,30.8,30.23,NNW,327,0.0,0.0,78,0.01,,---,0.00,VWS V14.01,2013-03-09 08:03:00,
2013-03-09 00:08:00,36.9,30.7,30.23,NNW,327,0.0,0.0,78,0.01,,---,0.00,VWS V14.01,2013-03-09 08:08:00,
2013-03-09 00:13:00,36.8,30.9,30.23,NNW,328,0.0,0.0,79,0.01,,---,0.00,VWS V14.01,2013-03-09 08:13:00,
2013-03-09 00:18:00,36.8,30.9,30.23,NNW,327,0.0,0.0,79,0.01,,---,0.00,VWS V14.01,2013-03-09 08:18:00,
2013-03-09 00:23:00,36.6,30.7,30.23,NNW,328,0.0,0.0,79,0.01,,---,0.00,VWS V14.01,2013-03-09 08:23:00,
2013-03-09 00:28:00,36.6,30.7,30.24,NNW,328,0.0,0.0,79,0.01,,---,0.00,VWS V14.01,2013-03-09 08:28:00,
2013-03-09 00:33:00,36.6,31.0,30.24,NNW,327,0.0,0.0,80,0.01,,---,0.00,VWS V14.01,2013-03-09 08:33:00,
2013-03-09 00:38:00,36.5,30.6,30.24,NNW,327,0.0,0.0,79,0.01,,---,0.00,VWS V14.01,2013-03-09 08:38:00,
2013-03-09 00:43:00,36.5,30.9,30.24,NNW,328,0.0,0.0,80,0.01,,---,0.00,VWS V14.01,2013-03-09 08:43:00,
2013-03-09 00:48:00,36.5,30.9,30.24,NNW,328,0.0,0.0,80,0.01,,---,0.00,VWS V14.01,2013-03-09 08:48:00,
2013-03-09 00:53:00,36.5,30.9,30.24,NNW,328,0.0,0.0,80,0.01,,---,0.00,VWS V14.01,2013-03-09 08:53:00,
2013-03-09 00:58:00,36.3,30.7,30.25,NNW,328,0.0,0.0,80,0.01,,---,0.00,VWS V14.01,2013-03-09 08:58:00,
2013-03-09 01:03:00,36.2,30.6,30.25,NNW,328,0.0,0.0,80,0.00,,---,0.00,VWS V14.01,2013-03-09 09:03:00,
2013-03-09 01:08:00,36.2,30.9,30.25,NNW,328,0.0,0.0,81,0.00,,---,0.00,VWS V14.01,2013-03-09 09:08:00,
2013-03-09 01:14:00,36.0,30.8,30.25,NNW,328,0.0,0.0,81,0.00,,---,0.00,VWS V14.01,2013-03-09 09:14:00,
2013-03-09 01:19:00,36.0,30.8,30.25,NNW,328,0.0,0.0,81,0.00,,---,0.00,VWS V14.01,2013-03-09 09:19:00,
2013-03-09 01:24:00,35.9,30.6,30.26,NNW,328,0.0,0.0,81,0.00,,---,0.00,VWS V14.01,2013-03-09 09:24:00,
2013-03-09 01:29:00,35.8,30.5,30.26,NNW,328,0.0,0.0,81,0.03,,---,0.03,VWS V14.01,2013-03-09 09:29:00,
2013-03-09 01:34:00,35.8,30.5,30.26,NNW,328,0.0,0.0,81,0.03,,---,0.03,VWS V14.01,2013-03-09 09:34:00,
2013-03-09 01:39:00,35.8,30.5,30.26,NNW,327,0.0,0.0,81,0.03,,---,0.03,VWS V14.01,2013-03-09 09:39:00,
2013-03-09 01:44:00,35.8,30.5,30.26,NNW,327,0.0,0.0,81,0.05,,---,0.05,VWS V14.01,2013-03-09 09:44:00,
2013-03-09 01:49:00,35.8,30.9,30.26,NNW,328,0.0,0.0,82,0.05,,---,0.05,VWS V14.01,2013-03-09 09:49:00,
2013-03-09 01:54:00,35.6,30.7,30.26,NNW,328,0.0,0.0,82,0.05,,---,0.05,VWS V14.01,2013-03-09 09:54:00,
2013-03-09 01:59:00,35.6,30.7,30.26,NNW,327,0.0,0.0,82,0.05,,---,0.05,VWS V14.01,2013-03-09 09:59:00,
2013-03-09 02:04:00,35.5,30.6,30.26,NNW,328,0.0,0.0,82,0.06,,---,0.06,VWS V14.01,2013-03-09 10:04:00,
2013-03-09 02:09:00,35.5,30.6,30.26,NNW,328,0.0,0.0,82,0.06,,---,0.06,VWS V14.01,2013-03-09 10:09:00,
2013-03-09 02:14:00,35.5,30.6,30.26,NNW,327,0.0,0.0,82,0.06,,---,0.06,VWS V14.01,2013-03-09 10:14:00,
2013-03-09 02:19:00,35.3,30.4,30.27,NNW,327,0.0,0.0,82,0.06,,---,0.06,VWS V14.01,2013-03-09 10:19:00,
2013-03-09 02:24:00,35.3,30.4,30.27,NNW,328,0.0,0.0,82,0.06,,---,0.06,VWS V14.01,2013-03-09 10:24:00,
2013-03-09 02:30:00,35.3,30.4,30.27,NNW,327,0.0,0.0,82,0.06,,---,0.06,VWS V14.01,2013-03-09 10:30:00,
2013-03-09 02:35:00,35.3,30.7,30.27,NNW,327,0.0,0.0,83,0.03,,---,0.06,VWS V14.01,2013-03-09 10:35:00,
2013-03-09 02:40:00,35.3,30.7,30.27,NNW,327,0.0,0.0,83,0.03,,---,0.06,VWS V14.01,2013-03-09 10:40:00,
2013-03-09 02:45:00,35.3,30.7,30.27,NNW,328,0.0,0.0,83,0.03,,---,0.06,VWS V14.01,2013-03-09 10:45:00,
2013-03-09 02:50:00,35.2,30.6,30.27,NNW,328,0.0,0.0,83,0.04,,---,0.07,VWS V14.01,2013-03-09 10:50:00,
2013-03-09 02:55:00,35.0,30.4,30.27,NNW,327,0.0,0.0,83,0.04,,---,0.07,VWS V14.01,2013-03-09 10:55:00,
2013-03-09 03:00:00,34.9,30.3,30.27,NNW,328,0.0,0.0,83,0.05,,---,0.08,VWS V14.01,2013-03-09 11:00:00,
2013-03-09 03:05:00,34.7,30.1,30.27,NNW,327,0.0,0.0,83,0.03,,---,0.09,VWS V14.01,2013-03-09 11:05:00,
2013-03-09 03:10:00,34.7,30.1,30.27,NNW,327,0.0,0.0,83,0.03,,---,0.09,VWS V14.01,2013-03-09 11:10:00,
2013-03-09 03:15:00,34.6,30.0,30.28,NNW,327,0.0,0.0,83,0.04,,---,0.10,VWS V14.01,2013-03-09 11:15:00,
2013-03-09 03:20:00,34.4,29.8,30.28,NNW,328,0.0,0.0,83,0.04,,---,0.10,VWS V14.01,2013-03-09 11:20:00,
2013-03-09 03:25:00,34.4,29.8,30.28,NNW,328,0.0,0.0,83,0.04,,---,0.10,VWS V14.01,2013-03-09 11:25:00,
2013-03-09 03:30:00,34.6,30.0,30.28,NNW,328,0.0,0.0,83,0.04,,---,0.10,VWS V14.01,2013-03-09 11:30:00,
2013-03-09 03:36:00,34.4,29.8,30.28,NNW,328,0.0,0.0,83,0.04,,---,0.10,VWS V14.01,2013-03-09 11:36:00,
2013-03-09 03:41:00,34.4,29.8,30.28,NNW,328,0.0,0.0,83,0.04,,---,0.10,VWS V14.01,2013-03-09 11:41:00,
2013-03-09 03:46:00,34.3,29.7,30.28,NNW,328,0.0,0.0,83,0.04,,---,0.10,VWS V14.01,2013-03-09 11:46:00,
2013-03-09 03:51:00,34.3,30.0,30.29,NNW,328,0.0,0.0,84,0.04,,---,0.10,VWS V14.01,2013-03-09 11:51:00,
2013-03-09 03:56:00,34.1,29.8,30.29,NNW,327,0.0,0.0,84,0.04,,---,0.10,VWS V14.01,2013-03-09 11:56:00,
2013-03-09 04:01:00,34.1,29.8,30.29,NNW,327,0.0,0.0,84,0.02,,---,0.10,VWS V14.01,2013-03-09 12:01:00,
2013-03-09 04:06:00,34.1,29.8,30.29,NNW,328,0.0,0.0,84,0.02,,---,0.10,VWS V14.01,2013-03-09 12:06:00,
2013-03-09 04:11:00,34.0,29.7,30.29,NNW,327,0.0,0.0,84,0.02,,---,0.10,VWS V14.01,2013-03-09 12:11:00,
2013-03-09 04:16:00,34.1,29.8,30.30,NNW,328,0.0,0.0,84,0.04,,---,0.12,VWS V14.01,2013-03-09 12:16:00,
2013-03-09 04:21:00,34.1,29.8,30.30,NNW,328,0.0,0.0,84,0.04,,---,0.12,VWS V14.01,2013-03-09 12:21:00,
2013-03-09 04:26:00,34.0,29.7,30.30,NNW,327,0.0,0.0,84,0.05,,---,0.13,VWS V14.01,2013-03-09 12:26:00,
2013-03-09 04:31:00,34.0,29.7,30.30,NNW,328,0.0,0.0,84,0.03,,---,0.13,VWS V14.01,2013-03-09 12:31:00,
2013-03-09 04:36:00,33.7,29.4,30.30,NNW,328,0.0,0.0,84,0.03,,---,0.13,VWS V14.01,2013-03-09 12:36:00,
2013-03-09 04:41:00,33.7,29.4,30.30,NNW,327,0.0,0.0,84,0.04,,---,0.14,VWS V14.01,2013-03-09 12:41:00,
2013-03-09 04:46:00,33.5,29.2,30.31,NNW,327,0.0,0.0,84,0.06,,---,0.16,VWS V14.01,2013-03-09 12:46:00,
2013-03-09 04:51:00,33.5,29.2,30.31,NNW,327,0.0,0.0,84,0.09,,---,0.19,VWS V14.01,2013-03-09 12:51:00,
2013-03-09 04:56:00,33.4,29.1,30.31,NNW,328,0.0,0.0,84,0.09,,---,0.19,VWS V14.01,2013-03-09 12:56:00,
2013-03-09 05:01:00,33.4,29.1,30.31,NNW,328,0.0,0.0,84,0.09,,---,0.19,VWS V14.01,2013-03-09 13:01:00,
2013-03-09 05:07:00,33.4,29.1,30.31,NNW,327,0.0,0.0,84,0.10,,---,0.20,VWS V14.01,2013-03-09 13:07:00,
2013-03-09 05:12:00,33.4,29.1,30.31,NNW,328,0.0,0.0,84,0.10,,---,0.20,VWS V14.01,2013-03-09 13:12:00,
2013-03-09 05:17:00,33.2,28.9,30.31,NNW,327,0.0,0.0,84,0.10,,---,0.20,VWS V14.01,2013-03-09 13:17:00,
2013-03-09 05:22:00,33.2,28.9,30.31,NNW,327,0.0,0.0,84,0.12,,---,0.22,VWS V14.01,2013-03-09 13:22:00,
2013-03-09 05:27:00,33.2,28.9,30.32,NNW,327,0.0,0.0,84,0.12,,---,0.22,VWS V14.01,2013-03-09 13:27:00,
2013-03-09 05:32:00,33.2,28.9,30.32,NNW,328,0.0,0.0,84,0.09,,---,0.22,VWS V14.01,2013-03-09 13:32:00,
2013-03-09 05:37:00,33.2,28.9,30.32,NNW,327,0.0,0.0,84,0.09,,---,0.22,VWS V14.01,2013-03-09 13:37:00,
2013-03-09 05:42:00,33.2,28.9,30.32,NNW,328,0.0,0.0,84,0.10,,---,0.23,VWS V14.01,2013-03-09 13:42:00,
2013-03-09 05:47:00,33.4,29.4,30.32,NNW,327,0.0,0.0,85,0.11,,---,0.24,VWS V14.01,2013-03-09 13:47:00,
2013-03-09 05:52:00,33.4,29.4,30.32,NNW,328,0.0,0.0,85,0.11,,---,0.24,VWS V14.01,2013-03-09 13:52:00,
2013-03-09 05:57:00,33.5,29.5,30.33,NNW,328,0.0,0.0,85,0.11,,---,0.24,VWS V14.01,2013-03-09 13:57:00,
2013-03-09 06:02:00,33.5,29.5,30.33,NNW,328,0.0,0.0,85,0.05,,---,0.24,VWS V14.01,2013-03-09 14:02:00,
2013-03-09 06:07:00,33.7,29.7,30.33,NNW,328,0.0,0.0,85,0.05,,---,0.24,VWS V14.01,2013-03-09 14:07:00,
2013-03-09 06:12:00,33.8,29.8,30.33,NNW,328,0.0,0.0,85,0.05,,---,0.24,VWS V14.01,2013-03-09 14:12:00,
2013-03-09 06:17:00,34.0,30.0,30.33,NNW,327,0.0,0.0,85,0.05,,---,0.24,VWS V14.01,2013-03-09 14:17:00,
2013-03-09 06:22:00,34.0,30.0,30.33,NNW,328,0.0,0.0,85,0.05,,---,0.24,VWS V14.01,2013-03-09 14:22:00,
2013-03-09 06:27:00,34.0,30.0,30.33,NNW,327,0.0,0.0,85,0.05,,---,0.24,VWS V14.01,2013-03-09 14:27:00,
2013-03-09 06:33:00,34.0,30.0,30.34,NNW,327,0.0,0.0,85,0.02,,---,0.24,VWS V14.01,2013-03-09 14:33:00,
2013-03-09 06:38:00,33.8,29.8,30.34,NNW,328,0.0,0.0,85,0.02,,---,0.24,VWS V14.01,2013-03-09 14:38:00,
2013-03-09 06:43:00,33.7,29.7,30.34,NNW,327,0.0,0.0,85,0.02,,---,0.24,VWS V14.01,2013-03-09 14:43:00,
2013-03-09 06:48:00,33.7,29.7,30.34,NNW,328,0.0,0.0,85,0.02,,---,0.24,VWS V14.01,2013-03-09 14:48:00,
2013-03-09 06:53:00,33.7,29.7,30.34,NNW,328,0.0,0.0,85,0.02,,---,0.24,VWS V14.01,2013-03-09 14:53:00,
2013-03-09 06:58:00,33.7,29.7,30.35,NNW,327,0.0,0.0,85,0.02,,---,0.24,VWS V14.01,2013-03-09 14:58:00,
2013-03-09 07:03:00,33.7,29.7,30.35,NNW,328,0.0,0.0,85,0.00,,---,0.24,VWS V14.01,2013-03-09 15:03:00,
2013-03-09 07:08:00,33.7,29.7,30.36,NNW,328,0.0,0.0,85,0.00,,---,0.24,VWS V14.01,2013-03-09 15:08:00,
2013-03-09 07:13:00,33.7,29.7,30.36,NNW,328,0.0,0.0,85,0.02,,---,0.26,VWS V14.01,2013-03-09 15:13:00,
2013-03-09 07:18:00,33.8,30.1,30.36,NNW,327,0.0,0.0,86,0.04,,---,0.28,VWS V14.01,2013-03-09 15:18:00,
2013-03-09 07:23:00,33.8,30.1,30.37,NNW,328,0.0,0.0,86,0.04,,---,0.28,VWS V14.01,2013-03-09 15:23:00,
2013-03-09 07:28:00,34.0,30.3,30.37,NNW,328,0.0,0.0,86,0.04,,---,0.28,VWS V14.01,2013-03-09 15:28:00,
2013-03-09 07:33:00,34.1,30.4,30.37,NNW,327,0.0,0.0,86,0.04,,---,0.28,VWS V14.01,2013-03-09 15:33:00,
2013-03-09 07:39:00,34.3,30.6,30.38,NNW,328,0.0,0.0,86,0.04,,---,0.28,VWS V14.01,2013-03-09 15:39:00,
2013-03-09 07:44:00,34.6,30.9,30.38,NNW,328,0.0,0.0,86,0.04,,---,0.28,VWS V14.01,2013-03-09 15:44:00,
2013-03-09 07:49:00,34.7,31.0,30.38,NNW,328,0.0,0.0,86,0.04,,---,0.28,VWS V14.01,2013-03-09 15:49:00,
2013-03-09 07:54:00,35.2,31.4,30.38,ESE,117,0.0,0.0,86,0.04,,---,0.28,VWS V14.01,2013-03-09 15:54:00,
2013-03-09 07:59:00,35.9,32.1,30.38,ESE,110,0.0,0.0,86,0.04,,---,0.28,VWS V14.01,2013-03-09 15:59:00,
2013-03-09 08:04:00,36.3,32.5,30.39,ESE,110,0.0,0.0,86,0.04,,---,0.28,VWS V14.01,2013-03-09 16:04:00,
2013-03-09 08:09:00,36.5,32.7,30.39,ESE,110,0.0,0.0,86,0.04,,---,0.28,VWS V14.01,2013-03-09 16:09:00,
2013-03-09 08:14:00,36.6,32.8,30.39,ESE,110,0.0,0.0,86,0.04,,---,0.28,VWS V14.01,2013-03-09 16:14:00,
2013-03-09 08:19:00,36.8,33.0,30.39,ESE,110,0.0,0.0,86,0.04,,---,0.28,VWS V14.01,2013-03-09 16:19:00,
2013-03-09 08:24:00,36.8,33.0,30.39,ESE,110,0.0,0.0,86,0.04,,---,0.28,VWS V14.01,2013-03-09 16:24:00,
2013-03-09 08:29:00,36.9,33.1,30.40,ESE,110,0.0,0.0,86,0.04,,---,0.28,VWS V14.01,2013-03-09 16:29:00,
2013-03-09 08:34:00,36.9,33.1,30.40,SE,134,0.0,0.0,86,0.03,,---,0.31,VWS V14.01,2013-03-09 16:34:00,
2013-03-09 08:39:00,36.9,33.1,30.40,SE,136,0.0,0.0,86,0.04,,---,0.32,VWS V14.01,2013-03-09 16:39:00,
2013-03-09 08:44:00,37.0,33.2,30.40,SE,131,0.0,0.0,86,0.04,,---,0.32,VWS V14.01,2013-03-09 16:44:00,
2013-03-09 08:49:00,37.0,33.2,30.40,SE,130,0.0,0.0,86,0.04,,---,0.32,VWS V14.01,2013-03-09 16:49:00,
2013-03-09 08:55:00,37.0,33.2,30.40,SE,129,0.0,0.0,86,0.04,,---,0.32,VWS V14.01,2013-03-09 16:55:00,
2013-03-09 09:00:00,37.0,33.2,30.40,ESE,120,0.0,0.0,86,0.05,,---,0.33,VWS V14.01,2013-03-09 17:00:00,
2013-03-09 09:05:00,37.0,33.2,30.40,East,92,0.0,0.0,86,0.09,,---,0.37,VWS V14.01,2013-03-09 17:05:00,
2013-03-09 09:10:00,37.0,33.2,30.39,SE,129,0.0,0.0,86,0.09,,---,0.37,VWS V14.01,2013-03-09 17:10:00,
2013-03-09 09:15:00,36.9,33.1,30.40,SE,126,0.0,0.0,86,0.10,,---,0.38,VWS V14.01,2013-03-09 17:15:00,
2013-03-09 09:20:00,36.9,33.1,30.41,ESE,120,0.0,0.0,86,0.14,,---,0.42,VWS V14.01,2013-03-09 17:20:00,
2013-03-09 09:25:00,36.9,33.1,30.41,ESE,118,0.0,0.0,86,0.16,,---,0.44,VWS V14.01,2013-03-09 17:25:00,
2013-03-09 09:30:00,37.0,33.2,30.41,ESE,122,0.0,0.0,86,0.18,,---,0.46,VWS V14.01,2013-03-09 17:30:00,
2013-03-09 09:35:00,37.2,33.4,30.41,ESE,123,0.0,0.0,86,0.26,,---,0.54,VWS V14.01,2013-03-09 17:35:00,
2013-03-09 09:40:00,37.3,33.5,30.41,ESE,122,0.0,0.0,86,0.29,,---,0.57,VWS V14.01,2013-03-09 17:40:00,
2013-03-09 09:45:00,37.5,33.7,30.41,ESE,121,0.0,0.0,86,0.32,,---,0.60,VWS V14.01,2013-03-09 17:45:00,
2013-03-09 09:50:00,37.9,34.1,30.41,ESE,120,0.0,0.0,86,0.32,,---,0.60,VWS V14.01,2013-03-09 17:50:00,
2013-03-09 09:55:00,38.3,34.8,30.41,ESE,111,0.0,0.0,87,0.35,,---,0.63,VWS V14.01,2013-03-09 17:55:00,
2013-03-09 10:00:00,38.8,35.3,30.41,East,80,0.0,0.0,87,0.30,,---,0.63,VWS V14.01,2013-03-09 18:00:00,
2013-03-09 10:05:00,39.3,35.8,30.41,East,85,0.0,0.0,87,0.30,,---,0.63,VWS V14.01,2013-03-09 18:05:00,
2013-03-09 10:10:00,39.6,35.8,30.41,NNE,32,0.0,0.0,86,0.30,,---,0.63,VWS V14.01,2013-03-09 18:10:00,
2013-03-09 10:16:00,39.9,36.1,30.41,NW,317,0.0,0.0,86,0.30,,---,0.63,VWS V14.01,2013-03-09 18:16:00,
2013-03-09 10:21:00,40.1,36.3,30.41,NW,317,0.0,0.0,86,0.30,,---,0.63,VWS V14.01,2013-03-09 18:21:00,
2013-03-09 10:26:00,40.3,36.5,30.41,NW,318,0.0,0.0,86,0.30,,---,0.63,VWS V14.01,2013-03-09 18:26:00,
2013-03-09 10:31:00,40.6,36.8,30.42,NW,315,0.0,0.0,86,0.17,,---,0.63,VWS V14.01,2013-03-09 18:31:00,
2013-03-09 10:36:00,41.3,37.4,30.42,NW,315,0.0,0.0,86,0.17,,---,0.63,VWS V14.01,2013-03-09 18:36:00,
2013-03-09 10:41:00,41.9,38.0,30.42,NW,315,0.0,0.0,86,0.17,,---,0.63,VWS V14.01,2013-03-09 18:41:00,
2013-03-09 10:46:00,42.1,37.9,30.42,NW,316,0.0,0.0,85,0.17,,---,0.63,VWS V14.01,2013-03-09 18:46:00,
2013-03-09 10:51:00,42.2,38.0,30.42,NNW,329,0.0,0.0,85,0.17,,---,0.63,VWS V14.01,2013-03-09 18:51:00,
2013-03-09 10:56:00,42.8,38.3,30.42,North,360,0.0,0.0,84,0.17,,---,0.63,VWS V14.01,2013-03-09 18:56:00,
2013-03-09 11:01:00,42.9,38.4,30.42,NW,323,0.0,0.0,84,0.00,,---,0.63,VWS V14.01,2013-03-09 19:01:00,
2013-03-09 11:06:00,43.3,38.2,30.42,West,267,0.0,0.0,82,0.00,,---,0.63,VWS V14.01,2013-03-09 19:06:00,
2013-03-09 11:11:00,43.6,37.5,30.43,South,188,0.0,0.0,79,0.00,,---,0.63,VWS V14.01,2013-03-09 19:11:00,
2013-03-09 11:16:00,44.3,37.6,30.43,NW,313,0.0,0.0,77,0.00,,---,0.63,VWS V14.01,2013-03-09 19:16:00,
2013-03-09 11:21:00,44.8,37.0,30.43,WNW,303,0.0,0.0,74,0.00,,---,0.63,VWS V14.01,2013-03-09 19:21:00,
2013-03-09 11:26:00,45.1,36.3,30.44,West,259,0.0,0.0,71,0.00,,---,0.63,VWS V14.01,2013-03-09 19:26:00,
2013-03-09 11:31:00,45.2,35.7,30.43,WNW,299,0.0,0.0,69,0.00,,---,0.63,VWS V14.01,2013-03-09 19:31:00,
2013-03-09 11:36:00,45.2,35.7,30.43,SW,232,0.0,0.0,69,0.00,,---,0.63,VWS V14.01,2013-03-09 19:36:00,
2013-03-09 11:41:00,45.7,35.4,30.44,SW,228,0.0,0.0,67,0.00,,---,0.63,VWS V14.01,2013-03-09 19:41:00,
2013-03-09 11:47:00,46.2,35.5,30.44,SW,230,0.0,0.0,66,0.00,,---,0.63,VWS V14.01,2013-03-09 19:47:00,
2013-03-09 11:52:00,46.8,35.3,30.44,SW,230,0.0,0.0,64,0.00,,---,0.63,VWS V14.01,2013-03-09 19:52:00,
2013-03-09 11:57:00,47.3,35.0,30.44,SW,230,0.0,0.0,62,0.00,,---,0.63,VWS V14.01,2013-03-09 19:57:00,
2013-03-09 12:02:00,47.7,34.9,30.44,SW,227,0.0,0.0,61,0.00,,---,0.63,VWS V14.01,2013-03-09 20:02:00,
2013-03-09 12:07:00,48.2,35.4,30.44,SSW,213,0.0,0.0,61,0.00,,---,0.63,VWS V14.01,2013-03-09 20:07:00,
2013-03-09 12:12:00,48.3,34.2,30.44,SW,217,0.0,0.0,58,0.00,,---,0.63,VWS V14.01,2013-03-09 20:12:00,
2013-03-09 12:17:00,48.6,34.1,30.44,SSW,206,0.0,0.0,57,0.00,,---,0.63,VWS V14.01,2013-03-09 20:17:00,
2013-03-09 12:22:00,48.9,33.9,30.43,WSW,248,0.0,0.0,56,0.00,,---,0.63,VWS V14.01,2013-03-09 20:22:00,
2013-03-09 12:27:00,49.2,33.7,30.43,SW,234,0.0,0.0,55,0.00,,---,0.63,VWS V14.01,2013-03-09 20:27:00,
2013-03-09 12:32:00,49.8,34.3,30.43,SSE,162,0.0,0.0,55,0.00,,---,0.63,VWS V14.01,2013-03-09 20:32:00,
2013-03-09 12:38:00,50.2,34.2,30.43,SSE,161,0.0,0.0,54,0.00,,---,0.63,VWS V14.01,2013-03-09 20:38:00,
2013-03-09 12:43:00,50.4,33.9,30.43,South,171,0.0,0.0,53,0.00,,---,0.63,VWS V14.01,2013-03-09 20:43:00,
2013-03-09 12:48:00,50.4,33.0,30.43,ESE,120,0.0,0.0,51,0.00,,---,0.63,VWS V14.01,2013-03-09 20:48:00,
2013-03-09 12:53:00,50.5,32.6,30.43,SSW,196,0.0,0.0,50,0.00,,---,0.63,VWS V14.01,2013-03-09 20:53:00,
2013-03-09 12:58:00,50.7,32.8,30.43,SSW,195,0.0,0.0,50,0.00,,---,0.63,VWS V14.01,2013-03-09 20:58:00,
2013-03-09 13:03:00,50.7,31.7,30.42,SSW,200,0.0,0.0,48,0.00,,---,0.63,VWS V14.01,2013-03-09 21:03:00,
2013-03-09 13:08:00,51.0,31.5,30.42,SSW,209,0.0,0.0,47,0.00,,---,0.63,VWS V14.01,2013-03-09 21:08:00,
2013-03-09 13:13:00,51.3,31.8,30.42,South,186,0.0,0.0,47,0.00,,---,0.63,VWS V14.01,2013-03-09 21:13:00,
2013-03-09 13:18:00,51.6,31.5,30.42,SSE,163,0.0,0.0,46,0.00,,---,0.63,VWS V14.01,2013-03-09 21:18:00,
2013-03-09 13:23:00,51.9,31.2,30.42,West,277,0.0,0.0,45,0.00,,---,0.63,VWS V14.01,2013-03-09 21:23:00,
2013-03-09 13:28:00,52.2,31.5,30.42,WSW,245,0.0,0.0,45,0.00,,---,0.63,VWS V14.01,2013-03-09 21:28:00,
2013-03-09 13:33:00,52.5,31.8,30.42,ESE,108,0.0,0.0,45,0.00,,---,0.63,VWS V14.01,2013-03-09 21:33:00,
2013-03-09 13:38:00,52.8,29.8,30.42,SW,216,0.0,0.0,41,0.00,,---,0.63,VWS V14.01,2013-03-09 21:38:00,
2013-03-09 13:43:00,52.9,29.9,30.42,SE,125,0.0,0.0,41,0.00,,---,0.63,VWS V14.01,2013-03-09 21:43:00,
2013-03-09 13:48:00,52.9,29.9,30.42,SSE,156,0.0,0.0,41,0.00,,---,0.63,VWS V14.01,2013-03-09 21:48:00,
2013-03-09 13:53:00,53.1,30.0,30.41,SE,146,0.0,0.0,41,0.00,,---,0.63,VWS V14.01,2013-03-09 21:53:00,
2013-03-09 13:58:00,52.9,29.9,30.41,SSE,160,0.0,0.0,41,0.00,,---,0.63,VWS V14.01,2013-03-09 21:58:00,
2013-03-09 14:03:00,52.9,30.5,30.41,South,182,0.0,0.0,42,0.00,,---,0.63,VWS V14.01,2013-03-09 22:03:00,
2013-03-09 14:08:00,53.2,30.7,30.42,SSE,157,0.0,0.0,42,0.00,,---,0.63,VWS V14.01,2013-03-09 22:08:00,
2013-03-09 14:14:00,53.1,29.4,30.41,SE,144,0.0,0.0,40,0.00,,---,0.63,VWS V14.01,2013-03-09 22:14:00,
2013-03-09 14:18:00,53.1,30.6,30.42,SSE,161,0.0,0.0,42,0.00,,---,0.63,VWS V14.01,2013-03-09 22:18:00,
2013-03-09 14:24:00,53.5,29.2,30.42,SSW,213,0.0,0.0,39,0.00,,---,0.63,VWS V14.01,2013-03-09 22:24:00,
2013-03-09 14:29:00,53.6,29.9,30.42,ESE,114,0.0,0.0,40,0.00,,---,0.63,VWS V14.01,2013-03-09 22:29:00,
2013-03-09 14:34:00,53.6,28.6,30.42,South,188,0.0,0.0,38,0.00,,---,0.63,VWS V14.01,2013-03-09 22:34:00,
2013-03-09 14:39:00,53.8,27.5,30.42,SW,216,0.0,0.0,36,0.00,,---,0.63,VWS V14.01,2013-03-09 22:39:00,
2013-03-09 14:44:00,53.8,28.2,30.42,SSE,167,0.0,0.0,37,0.00,,---,0.63,VWS V14.01,2013-03-09 22:44:00,
2013-03-09 14:49:00,54.1,29.1,30.42,South,169,0.0,0.0,38,0.00,,---,0.63,VWS V14.01,2013-03-09 22:49:00,
2013-03-09 14:54:00,53.9,28.9,30.42,SSE,158,0.0,0.0,38,0.00,,---,0.63,VWS V14.01,2013-03-09 22:54:00,
2013-03-09 14:59:00,53.9,28.2,30.42,WSW,246,0.0,0.0,37,0.00,,---,0.63,VWS V14.01,2013-03-09 22:59:00,
2013-03-09 15:04:00,53.9,28.2,30.42,WSW,243,0.0,0.0,37,0.00,,---,0.63,VWS V14.01,2013-03-09 23:04:00,
2013-03-09 15:09:00,54.2,28.5,30.42,South,179,0.0,0.0,37,0.00,,---,0.63,VWS V14.01,2013-03-09 23:09:00,
2013-03-09 15:14:00,54.4,28.7,30.42,SE,138,0.0,0.0,37,0.00,,---,0.63,VWS V14.01,2013-03-09 23:14:00,
2013-03-09 15:19:00,54.4,28.0,30.42,South,186,0.0,0.0,36,0.00,,---,0.63,VWS V14.01,2013-03-09 23:19:00,
2013-03-09 15:24:00,54.5,28.1,30.42,WSW,254,0.0,0.0,36,0.00,,---,0.63,VWS V14.01,2013-03-09 23:24:00,
2013-03-09 15:29:00,54.7,29.0,30.42,South,173,0.0,0.0,37,0.00,,---,0.63,VWS V14.01,2013-03-09 23:29:00,
2013-03-09 15:35:00,54.5,28.1,30.42,SSW,202,0.0,0.0,36,0.00,,---,0.63,VWS V14.01,2013-03-09 23:35:00,
2013-03-09 15:40:00,54.4,28.7,30.42,WNW,287,0.0,0.0,37,0.00,,---,0.63,VWS V14.01,2013-03-09 23:40:00,
2013-03-09 15:45:00,54.4,29.3,30.42,SW,219,0.0,0.0,38,0.00,,---,0.63,VWS V14.01,2013-03-09 23:45:00,
2013-03-09 15:50:00,54.4,28.7,30.42,SE,127,0.0,0.0,37,0.00,,---,0.63,VWS V14.01,2013-03-09 23:50:00,
2013-03-09 15:55:00,54.5,28.8,30.42,SW,217,0.0,0.0,37,0.00,,---,0.63,VWS V14.01,2013-03-09 23:55:00,
2013-03-09 16:00:00,54.4,28.7,30.42,West,265,0.0,0.0,37,0.00,,---,0.63,VWS V14.01,2013-03-10 00:00:00,
2013-03-09 16:05:00,54.4,29.3,30.42,WSW,238,0.0,0.0,38,0.00,,---,0.63,VWS V14.01,2013-03-10 00:05:00,
2013-03-09 16:10:00,54.2,28.5,30.42,SSW,196,0.0,0.0,37,0.00,,---,0.63,VWS V14.01,2013-03-10 00:10:00,
2013-03-09 16:15:00,54.2,27.9,30.42,SE,133,0.0,0.0,36,0.00,,---,0.63,VWS V14.01,2013-03-10 00:15:00,
2013-03-09 16:20:00,54.2,28.5,30.42,West,269,0.0,0.0,37,0.00,,---,0.63,VWS V14.01,2013-03-10 00:20:00,
2013-03-09 16:25:00,54.4,28.7,30.42,SSW,192,0.0,0.0,37,0.00,,---,0.63,VWS V14.01,2013-03-10 00:25:00,
2013-03-09 16:30:00,54.5,28.1,30.42,West,280,0.0,0.0,36,0.00,,---,0.63,VWS V14.01,2013-03-10 00:30:00,
2013-03-09 16:36:00,54.5,28.8,30.42,South,186,0.0,0.0,37,0.00,,---,0.63,VWS V14.01,2013-03-10 00:36:00,
2013-03-09 16:41:00,54.5,29.4,30.42,South,182,0.0,0.0,38,0.00,,---,0.63,VWS V14.01,2013-03-10 00:41:00,
2013-03-09 16:46:00,54.5,28.8,30.42,SE,142,0.0,0.0,37,0.00,,---,0.63,VWS V14.01,2013-03-10 00:46:00,
2013-03-09 16:51:00,54.4,28.7,30.42,SSE,161,0.0,0.0,37,0.00,,---,0.63,VWS V14.01,2013-03-10 00:51:00,
2013-03-09 16:56:00,54.2,29.2,30.42,SSW,200,0.0,0.0,38,0.00,,---,0.63,VWS V14.01,2013-03-10 00:56:00,
2013-03-09 17:01:00,54.2,29.2,30.42,SSE,153,0.0,0.0,38,0.00,,---,0.63,VWS V14.01,2013-03-10 01:01:00,
2013-03-09 17:06:00,54.1,29.7,30.42,South,190,0.0,0.0,39,0.00,,---,0.63,VWS V14.01,2013-03-10 01:06:00,
2013-03-09 17:11:00,53.9,29.5,30.42,South,190,0.0,0.0,39,0.00,,---,0.63,VWS V14.01,2013-03-10 01:11:00,
2013-03-09 17:16:00,53.9,29.5,30.42,South,190,0.0,0.0,39,0.00,,---,0.63,VWS V14.01,2013-03-10 01:16:00,
2013-03-09 17:21:00,53.9,29.5,30.42,SSW,199,0.0,0.0,39,0.00,,---,0.63,VWS V14.01,2013-03-10 01:21:00,
2013-03-09 17:26:00,53.8,30.1,30.42,SSW,200,0.0,0.0,40,0.00,,---,0.63,VWS V14.01,2013-03-10 01:26:00,
2013-03-09 17:31:00,53.9,30.8,30.42,SSW,201,0.0,0.0,41,0.00,,---,0.63,VWS V14.01,2013-03-10 01:31:00,
2013-03-09 17:36:00,53.8,31.3,30.42,SSW,201,0.0,0.0,42,0.00,,---,0.63,VWS V14.01,2013-03-10 01:36:00,
2013-03-09 17:41:00,53.8,31.9,30.43,SSW,200,0.0,0.0,43,0.00,,---,0.63,VWS V14.01,2013-03-10 01:41:00,
2013-03-09 17:46:00,53.5,31.6,30.43,SSW,201,0.0,0.0,43,0.00,,---,0.63,VWS V14.01,2013-03-10 01:46:00,
2013-03-09 17:52:00,53.3,32.0,30.43,SSW,201,0.0,0.0,44,0.00,,---,0.63,VWS V14.01,2013-03-10 01:52:00,
2013-03-09 17:57:00,53.1,31.8,30.43,SSW,201,0.0,0.0,44,0.00,,---,0.63,VWS V14.01,2013-03-10 01:57:00,
2013-03-09 18:02:00,52.9,32.7,30.43,SSW,201,0.0,0.0,46,0.00,,---,0.63,VWS V14.01,2013-03-10 02:02:00,
2013-03-09 18:07:00,52.6,32.4,30.43,SSW,201,0.0,0.0,46,0.00,,---,0.63,VWS V14.01,2013-03-10 02:07:00,
2013-03-09 18:12:00,52.3,32.2,30.43,SSW,200,0.0,0.0,46,0.00,,---,0.63,VWS V14.01,2013-03-10 02:12:00,
2013-03-09 18:17:00,51.9,32.3,30.44,SSW,201,0.0,0.0,47,0.00,,---,0.63,VWS V14.01,2013-03-10 02:17:00,
2013-03-09 18:22:00,51.6,32.6,30.44,SSW,201,0.0,0.0,48,0.00,,---,0.63,VWS V14.01,2013-03-10 02:22:00,
2013-03-09 18:27:00,51.1,32.6,30.44,SSW,201,0.0,0.0,49,0.00,,---,0.63,VWS V14.01,2013-03-10 02:27:00,
2013-03-09 18:32:00,50.7,33.2,30.44,SSW,201,0.0,0.0,51,0.00,,---,0.63,VWS V14.01,2013-03-10 02:32:00,
2013-03-09 18:37:00,50.2,33.3,30.44,SSW,201,0.0,0.0,52,0.00,,---,0.63,VWS V14.01,2013-03-10 02:37:00,
2013-03-09 18:42:00,49.9,33.0,30.44,SSW,201,0.0,0.0,52,0.00,,---,0.63,VWS V14.01,2013-03-10 02:42:00,
2013-03-09 18:47:00,49.6,33.2,30.44,SSW,201,0.0,0.0,53,0.00,,---,0.63,VWS V14.01,2013-03-10 02:47:00,
2013-03-09 18:52:00,49.4,33.5,30.44,SSW,201,0.0,0.0,54,0.00,,---,0.63,VWS V14.01,2013-03-10 02:52:00,
2013-03-09 18:57:00,49.1,33.2,30.44,SSW,201,0.0,0.0,54,0.00,,---,0.63,VWS V14.01,2013-03-10 02:57:00,
2013-03-09 19:02:00,48.8,32.9,30.45,SSW,201,0.0,0.0,54,0.00,,---,0.63,VWS V14.01,2013-03-10 03:02:00,
2013-03-09 19:08:00,48.3,32.9,30.45,SSW,201,0.0,0.0,55,0.00,,---,0.63,VWS V14.01,2013-03-10 03:08:00,
2013-03-09 19:13:00,48.0,33.1,30.45,SSW,201,0.0,0.0,56,0.00,,---,0.63,VWS V14.01,2013-03-10 03:13:00,
2013-03-09 19:18:00,47.7,33.2,30.45,SSW,201,0.0,0.0,57,0.00,,---,0.63,VWS V14.01,2013-03-10 03:18:00,
2013-03-09 19:23:00,47.4,33.0,30.45,SSW,201,0.0,0.0,57,0.00,,---,0.63,VWS V14.01,2013-03-10 03:23:00,
2013-03-09 19:28:00,47.3,33.3,30.45,SSW,201,0.0,0.0,58,0.00,,---,0.63,VWS V14.01,2013-03-10 03:28:00,
2013-03-09 19:33:00,47.0,33.0,30.45,SSW,201,0.0,0.0,58,0.00,,---,0.63,VWS V14.01,2013-03-10 03:33:00,
2013-03-09 19:38:00,46.8,32.8,30.46,SSW,201,0.0,0.0,58,0.00,,---,0.63,VWS V14.01,2013-03-10 03:38:00,
2013-03-09 19:43:00,46.5,33.0,30.46,SSW,201,0.0,0.0,59,0.00,,---,0.63,VWS V14.01,2013-03-10 03:43:00,
2013-03-09 19:48:00,46.4,33.3,30.46,SSW,201,0.0,0.0,60,0.00,,---,0.63,VWS V14.01,2013-03-10 03:48:00,
2013-03-09 19:53:00,46.1,33.0,30.46,SSW,201,0.0,0.0,60,0.00,,---,0.63,VWS V14.01,2013-03-10 03:53:00,
2013-03-09 19:58:00,46.0,32.9,30.46,SSW,201,0.0,0.0,60,0.00,,---,0.63,VWS V14.01,2013-03-10 03:58:00,
2013-03-09 20:03:00,45.7,33.4,30.46,SSW,201,0.0,0.0,62,0.00,,---,0.63,VWS V14.01,2013-03-10 04:03:00,
2013-03-09 20:08:00,45.4,33.2,30.46,SSW,201,0.0,0.0,62,0.00,,---,0.63,VWS V14.01,2013-03-10 04:08:00,
2013-03-09 20:13:00,45.2,33.4,30.47,West,273,0.0,0.0,63,0.00,,---,0.63,VWS V14.01,2013-03-10 04:13:00,
2013-03-09 20:19:00,44.9,33.5,30.47,West,273,0.0,0.0,64,0.00,,---,0.63,VWS V14.01,2013-03-10 04:19:00,
2013-03-09 20:24:00,44.8,33.8,30.47,NW,321,0.0,0.0,65,0.00,,---,0.63,VWS V14.01,2013-03-10 04:24:00,
2013-03-09 20:29:00,44.6,33.6,30.47,North,351,0.0,0.0,65,0.00,,---,0.63,VWS V14.01,2013-03-10 04:29:00,
2013-03-09 20:34:00,44.6,34.3,30.47,North,351,0.0,0.0,67,0.00,,---,0.63,VWS V14.01,2013-03-10 04:34:00,
2013-03-09 20:39:00,44.5,34.2,30.47,NNW,339,0.0,0.0,67,0.00,,---,0.63,VWS V14.01,2013-03-10 04:39:00,
2013-03-09 20:44:00,44.5,34.6,30.47,NNW,338,0.0,0.0,68,0.00,,---,0.63,VWS V14.01,2013-03-10 04:44:00,
2013-03-09 20:49:00,44.3,34.4,30.47,NNW,338,0.0,0.0,68,0.00,,---,0.63,VWS V14.01,2013-03-10 04:49:00,
2013-03-09 20:54:00,44.3,34.4,30.47,NNW,338,0.0,0.0,68,0.00,,---,0.63,VWS V14.01,2013-03-10 04:54:00,
2013-03-09 20:59:00,44.2,34.3,30.47,NNW,338,0.0,0.0,68,0.00,,---,0.63,VWS V14.01,2013-03-10 04:59:00,
2013-03-09 21:00:00,44.2,34.3,30.47,NNW,338,0.0,0.0,68,0.00,,---,0.63,VWS V14.01,2013-03-10 05:00:00,
2013-03-09 21:01:00,44.2,34.3,30.47,NNW,338,0.0,0.0,68,0.00,,---,0.63,VWS V14.01,2013-03-10 05:01:00,
2013-03-09 21:06:00,44.1,34.2,30.47,NNW,338,0.0,0.0,68,0.00,,---,0.63,VWS V14.01,2013-03-10 05:06:00,
2013-03-09 21:11:00,43.9,34.4,30.47,NNW,338,0.0,0.0,69,0.00,,---,0.63,VWS V14.01,2013-03-10 05:11:00,
2013-03-09 21:17:00,43.8,34.3,30.47,NNW,338,0.0,0.0,69,0.00,,---,0.63,VWS V14.01,2013-03-10 05:17:00,
2013-03-09 21:22:00,43.6,34.5,30.47,NNW,338,0.0,0.0,70,0.00,,---,0.63,VWS V14.01,2013-03-10 05:22:00,
2013-03-09 21:27:00,43.5,34.4,30.47,NNW,338,0.0,0.0,70,0.00,,---,0.63,VWS V14.01,2013-03-10 05:27:00,
2013-03-09 21:32:00,43.3,34.5,30.47,NNW,338,0.0,0.0,71,0.00,,---,0.63,VWS V14.01,2013-03-10 05:32:00,
2013-03-09 21:37:00,43.2,34.5,30.47,NNW,338,0.0,0.0,71,0.00,,---,0.63,VWS V14.01,2013-03-10 05:37:00,
2013-03-09 21:42:00,42.9,34.2,30.48,NNW,338,0.0,0.0,71,0.00,,---,0.63,VWS V14.01,2013-03-10 05:42:00,
2013-03-09 21:47:00,42.8,34.1,30.48,NNW,338,0.0,0.0,71,0.00,,---,0.63,VWS V14.01,2013-03-10 05:47:00,
2013-03-09 21:52:00,42.6,34.2,30.48,NNW,338,0.0,0.0,72,0.00,,---,0.63,VWS V14.01,2013-03-10 05:52:00,
2013-03-09 21:57:00,42.5,34.1,30.48,NNW,338,0.0,0.0,72,0.00,,---,0.63,VWS V14.01,2013-03-10 05:57:00,
2013-03-09 22:02:00,42.3,33.9,30.48,NNW,338,0.0,0.0,72,0.00,,---,0.63,VWS V14.01,2013-03-10 06:02:00,
2013-03-09 22:07:00,42.2,34.2,30.47,NNW,338,0.0,0.0,73,0.00,,---,0.63,VWS V14.01,2013-03-10 06:07:00,
2013-03-09 22:12:00,42.1,34.1,30.48,NNW,338,0.0,0.0,73,0.00,,---,0.63,VWS V14.01,2013-03-10 06:12:00,
2013-03-09 22:17:00,41.9,33.9,30.48,NNW,338,0.0,0.0,73,0.00,,---,0.63,VWS V14.01,2013-03-10 06:17:00,
2013-03-09 22:22:00,41.8,33.8,30.48,NNW,338,0.0,0.0,73,0.00,,---,0.63,VWS V14.01,2013-03-10 06:22:00,
2013-03-09 22:27:00,41.8,34.1,30.47,NNW,338,0.0,0.0,74,0.00,,---,0.63,VWS V14.01,2013-03-10 06:27:00,
2013-03-09 22:32:00,41.6,33.9,30.47,NNW,338,0.0,0.0,74,0.00,,---,0.63,VWS V14.01,2013-03-10 06:32:00,
2013-03-09 22:38:00,41.6,33.9,30.47,NNW,338,0.0,0.0,74,0.00,,---,0.63,VWS V14.01,2013-03-10 06:38:00,
2013-03-09 22:43:00,41.5,33.8,30.47,NNW,338,0.0,0.0,74,0.00,,---,0.63,VWS V14.01,2013-03-10 06:43:00,
2013-03-09 22:48:00,41.3,33.7,30.47,NNW,338,0.0,0.0,74,0.00,,---,0.63,VWS V14.01,2013-03-10 06:48:00,
2013-03-09 22:53:00,41.2,33.5,30.47,NNW,338,0.0,0.0,74,0.00,,---,0.63,VWS V14.01,2013-03-10 06:53:00,
2013-03-09 22:58:00,41.1,33.8,30.48,NNW,338,0.0,0.0,75,0.00,,---,0.63,VWS V14.01,2013-03-10 06:58:00,
2013-03-09 23:03:00,41.1,33.8,30.47,NNW,338,0.0,0.0,75,0.00,,---,0.63,VWS V14.01,2013-03-10 07:03:00,
2013-03-09 23:08:00,40.9,33.6,30.48,NNW,338,0.0,0.0,75,0.00,,---,0.63,VWS V14.01,2013-03-10 07:08:00,
2013-03-09 23:13:00,40.8,33.5,30.48,NNW,338,0.0,0.0,75,0.00,,---,0.63,VWS V14.01,2013-03-10 07:13:00,
2013-03-09 23:18:00,40.6,33.3,30.48,NNW,338,0.0,0.0,75,0.00,,---,0.63,VWS V14.01,2013-03-10 07:18:00,
2013-03-09 23:23:00,40.5,33.2,30.47,NNW,338,0.0,0.0,75,0.00,,---,0.63,VWS V14.01,2013-03-10 07:23:00,
2013-03-09 23:28:00,40.3,33.3,30.48,NNW,338,0.0,0.0,76,0.00,,---,0.63,VWS V14.01,2013-03-10 07:28:00,
2013-03-09 23:33:00,40.2,33.2,30.47,NNW,338,0.0,0.0,76,0.00,,---,0.63,VWS V14.01,2013-03-10 07:33:00,
2013-03-09 23:38:00,40.1,33.2,30.48,NNW,338,0.0,0.0,76,0.00,,---,0.63,VWS V14.01,2013-03-10 07:38:00,
2013-03-09 23:43:00,40.1,33.2,30.48,NNW,338,0.0,0.0,76,0.00,,---,0.63,VWS V14.01,2013-03-10 07:43:00,
2013-03-09 23:48:00,39.9,33.0,30.48,NNW,338,0.0,0.0,76,0.00,,---,0.63,VWS V14.01,2013-03-10 07:48:00,
2013-03-09 23:54:00,39.8,32.9,30.48,NNW,338,0.0,0.0,76,0.00,,---,0.63,VWS V14.01,2013-03-10 07:54:00,
2013-03-09 23:59:00,39.6,32.7,30.47,NNW,338,0.0,0.0,76,0.00,,---,0.63,VWS V14.01,2013-03-10 07:59:00,